sensor_id;sensor_type;location;lat;lon;timestamp;P1;durP1;ratioP1;P2;durP2;ratioP2
79410;SDS011;69635;50.964;6.948;2024-03-23T00:54:24;15.02;;;4.53;;
79410;SDS011;69635;50.964;6.948;2024-03-23T00:56:49;15.20;;;3.97;;
79410;SDS011;69635;50.964;6.948;2024-03-23T00:59:14;17.53;;;6.00;;
79410;SDS011;69635;50.964;6.948;2024-03-23T01:01:39;11.07;;;4.47;;
79410;SDS011;69635;50.964;6.948;2024-03-23T01:04:05;17.97;;;5.30;;
79410;SDS011;69635;50.964;6.948;2024-03-23T01:06:30;12.93;;;5.07;;
79410;SDS011;69635;50.964;6.948;2024-03-23T01:08:55;13.33;;;4.57;;
79410;SDS011;69635;50.964;6.948;2024-03-23T01:11:20;3.67;;;2.43;;
79410;SDS011;69635;50.964;6.948;2024-03-23T01:13:46;14.10;;;4.63;;
79410;SDS011;69635;50.964;6.948;2024-03-23T01:16:11;11.10;;;4.30;;
79410;SDS011;69635;50.964;6.948;2024-03-23T01:18:36;5.10;;;2.80;;
79410;SDS011;69635;50.964;6.948;2024-03-23T01:21:01;6.57;;;2.60;;
79410;SDS011;69635;50.964;6.948;2024-03-23T01:23:27;3.42;;;2.10;;
79410;SDS011;69635;50.964;6.948;2024-03-23T01:25:55;4.47;;;1.73;;
79410;SDS011;69635;50.964;6.948;2024-03-23T01:28:21;2.95;;;1.85;;
79410;SDS011;69635;50.964;6.948;2024-03-23T01:30:49;3.05;;;1.40;;
79410;SDS011;69635;50.964;6.948;2024-03-23T01:33:15;6.93;;;0.98;;
79410;SDS011;69635;50.964;6.948;2024-03-23T01:35:40;2.17;;;1.20;;
79410;SDS011;69635;50.964;6.948;2024-03-23T01:38:05;3.40;;;1.60;;
79410;SDS011;69635;50.964;6.948;2024-03-23T01:40:31;3.15;;;1.08;;
79410;SDS011;69635;50.964;6.948;2024-03-23T01:42:57;5.82;;;1.02;;
79410;SDS011;69635;50.964;6.948;2024-03-23T01:45:23;3.13;;;1.15;;
79410;SDS011;69635;50.964;6.948;2024-03-23T01:47:49;1.60;;;1.13;;
79410;SDS011;69635;50.964;6.948;2024-03-23T01:50:14;3.28;;;1.13;;
79410;SDS011;69635;50.964;6.948;2024-03-23T01:52:40;2.67;;;0.90;;
79410;SDS011;69635;50.964;6.948;2024-03-23T01:55:05;6.03;;;2.20;;
79410;SDS011;69635;50.964;6.948;2024-03-23T01:57:30;4.95;;;1.77;;
79410;SDS011;69635;50.964;6.948;2024-03-23T01:59:55;8.00;;;3.07;;
79410;SDS011;69635;50.964;6.948;2024-03-23T02:02:20;1.80;;;0.90;;
79410;SDS011;69635;50.964;6.948;2024-03-23T02:04:46;5.47;;;1.80;;
79410;SDS011;69635;50.964;6.948;2024-03-23T02:07:11;2.17;;;1.40;;
79410;SDS011;69635;50.964;6.948;2024-03-23T02:09:36;7.67;;;2.63;;
79410;SDS011;69635;50.964;6.948;2024-03-23T02:12:02;2.37;;;1.47;;
79410;SDS011;69635;50.964;6.948;2024-03-23T02:14:27;6.15;;;2.17;;
79410;SDS011;69635;50.964;6.948;2024-03-23T02:16:53;6.77;;;2.13;;
79410;SDS011;69635;50.964;6.948;2024-03-23T02:19:18;2.10;;;1.07;;
79410;SDS011;69635;50.964;6.948;2024-03-23T02:21:43;3.27;;;0.50;;
79410;SDS011;69635;50.964;6.948;2024-03-23T02:24:08;1.67;;;1.47;;
79410;SDS011;69635;50.964;6.948;2024-03-23T02:26:33;6.63;;;2.10;;
79410;SDS011;69635;50.964;6.948;2024-03-23T02:28:59;3.60;;;1.30;;
79410;SDS011;69635;50.964;6.948;2024-03-23T02:31:24;8.53;;;1.97;;
79410;SDS011;69635;50.964;6.948;2024-03-23T02:33:49;10.30;;;2.13;;
79410;SDS011;69635;50.964;6.948;2024-03-23T02:36:14;6.73;;;2.17;;
79410;SDS011;69635;50.964;6.948;2024-03-23T02:38:39;6.40;;;2.83;;
79410;SDS011;69635;50.964;6.948;2024-03-23T02:41:05;8.30;;;2.80;;
79410;SDS011;69635;50.964;6.948;2024-03-23T02:43:30;2.17;;;1.25;;
79410;SDS011;69635;50.964;6.948;2024-03-23T02:45:56;9.23;;;2.88;;
79410;SDS011;69635;50.964;6.948;2024-03-23T02:48:21;4.50;;;1.20;;
79410;SDS011;69635;50.964;6.948;2024-03-23T02:50:46;1.30;;;0.70;;
79410;SDS011;69635;50.964;6.948;2024-03-23T02:53:11;6.13;;;2.20;;
79410;SDS011;69635;50.964;6.948;2024-03-23T02:55:37;4.17;;;1.80;;
79410;SDS011;69635;50.964;6.948;2024-03-23T02:58:02;7.53;;;2.20;;
79410;SDS011;69635;50.964;6.948;2024-03-23T03:00:28;3.93;;;1.73;;
79410;SDS011;69635;50.964;6.948;2024-03-23T03:02:53;5.00;;;1.98;;
79410;SDS011;69635;50.964;6.948;2024-03-23T03:05:18;4.73;;;1.90;;
79410;SDS011;69635;50.964;6.948;2024-03-23T03:07:43;3.30;;;1.90;;
79410;SDS011;69635;50.964;6.948;2024-03-23T03:10:09;4.63;;;1.70;;
79410;SDS011;69635;50.964;6.948;2024-03-23T03:12:36;2.15;;;1.52;;
79410;SDS011;69635;50.964;6.948;2024-03-23T03:15:02;5.15;;;1.63;;
79410;SDS011;69635;50.964;6.948;2024-03-23T03:17:28;4.90;;;1.40;;
79410;SDS011;69635;50.964;6.948;2024-03-23T03:19:53;2.93;;;0.90;;
79410;SDS011;69635;50.964;6.948;2024-03-23T03:22:22;3.42;;;1.10;;
79410;SDS011;69635;50.964;6.948;2024-03-23T03:24:47;4.13;;;1.83;;
79410;SDS011;69635;50.964;6.948;2024-03-23T03:27:13;8.73;;;1.95;;
79410;SDS011;69635;50.964;6.948;2024-03-23T03:29:38;7.33;;;2.33;;
79410;SDS011;69635;50.964;6.948;2024-03-23T03:32:03;5.20;;;1.77;;
79410;SDS011;69635;50.964;6.948;2024-03-23T03:34:29;7.07;;;2.17;;
79410;SDS011;69635;50.964;6.948;2024-03-23T03:36:54;8.10;;;1.77;;
79410;SDS011;69635;50.964;6.948;2024-03-23T03:39:19;7.10;;;2.42;;
79410;SDS011;69635;50.964;6.948;2024-03-23T03:41:45;12.53;;;3.13;;
79410;SDS011;69635;50.964;6.948;2024-03-23T03:44:10;3.92;;;1.42;;
79410;SDS011;69635;50.964;6.948;2024-03-23T03:46:35;2.97;;;0.93;;
79410;SDS011;69635;50.964;6.948;2024-03-23T03:49:01;8.57;;;2.07;;
79410;SDS011;69635;50.964;6.948;2024-03-23T03:51:26;4.50;;;1.60;;
79410;SDS011;69635;50.964;6.948;2024-03-23T03:53:51;6.13;;;1.50;;
79410;SDS011;69635;50.964;6.948;2024-03-23T03:56:16;3.77;;;1.50;;
79410;SDS011;69635;50.964;6.948;2024-03-23T03:58:43;8.77;;;1.55;;
79410;SDS011;69635;50.964;6.948;2024-03-23T04:01:08;5.38;;;1.23;;
79410;SDS011;69635;50.964;6.948;2024-03-23T04:03:34;7.63;;;1.43;;
79410;SDS011;69635;50.964;6.948;2024-03-23T04:05:59;1.05;;;0.32;;
79410;SDS011;69635;50.964;6.948;2024-03-23T04:08:24;6.13;;;1.50;;
79410;SDS011;69635;50.964;6.948;2024-03-23T04:10:49;4.23;;;1.27;;
79410;SDS011;69635;50.964;6.948;2024-03-23T04:13:15;3.53;;;1.35;;
79410;SDS011;69635;50.964;6.948;2024-03-23T04:15:41;5.93;;;1.42;;
79410;SDS011;69635;50.964;6.948;2024-03-23T04:18:06;5.50;;;0.95;;
79410;SDS011;69635;50.964;6.948;2024-03-23T04:20:32;3.40;;;1.27;;
79410;SDS011;69635;50.964;6.948;2024-03-23T04:22:57;3.75;;;1.00;;
79410;SDS011;69635;50.964;6.948;2024-03-23T04:25:23;2.15;;;0.65;;
79410;SDS011;69635;50.964;6.948;2024-03-23T04:27:48;5.18;;;1.13;;
79410;SDS011;69635;50.964;6.948;2024-03-23T04:30:13;4.30;;;1.63;;
79410;SDS011;69635;50.964;6.948;2024-03-23T04:32:39;5.80;;;1.00;;
79410;SDS011;69635;50.964;6.948;2024-03-23T04:35:04;6.07;;;1.25;;
79410;SDS011;69635;50.964;6.948;2024-03-23T04:37:31;2.35;;;1.23;;
79410;SDS011;69635;50.964;6.948;2024-03-23T04:39:56;5.93;;;1.27;;
79410;SDS011;69635;50.964;6.948;2024-03-23T04:42:21;6.50;;;1.67;;
79410;SDS011;69635;50.964;6.948;2024-03-23T04:44:47;3.80;;;0.80;;
79410;SDS011;69635;50.964;6.948;2024-03-23T04:47:12;10.73;;;1.40;;
79410;SDS011;69635;50.964;6.948;2024-03-23T04:49:37;12.43;;;2.00;;
79410;SDS011;69635;50.964;6.948;2024-03-23T04:52:03;8.67;;;1.17;;
79410;SDS011;69635;50.964;6.948;2024-03-23T04:54:28;4.70;;;1.13;;
79410;SDS011;69635;50.964;6.948;2024-03-23T04:56:54;7.33;;;1.00;;
79410;SDS011;69635;50.964;6.948;2024-03-23T04:59:19;10.73;;;1.85;;
79410;SDS011;69635;50.964;6.948;2024-03-23T05:01:44;4.17;;;0.90;;
79410;SDS011;69635;50.964;6.948;2024-03-23T05:04:10;11.73;;;2.17;;
79410;SDS011;69635;50.964;6.948;2024-03-23T05:06:35;4.10;;;1.17;;
79410;SDS011;69635;50.964;6.948;2024-03-23T05:09:00;3.05;;;1.10;;
79410;SDS011;69635;50.964;6.948;2024-03-23T05:11:32;3.10;;;1.90;;
79410;SDS011;69635;50.964;6.948;2024-03-23T05:13:57;4.72;;;1.42;;
79410;SDS011;69635;50.964;6.948;2024-03-23T05:16:22;5.33;;;1.10;;
79410;SDS011;69635;50.964;6.948;2024-03-23T05:18:48;4.23;;;1.30;;
79410;SDS011;69635;50.964;6.948;2024-03-23T05:21:13;4.77;;;1.33;;
79410;SDS011;69635;50.964;6.948;2024-03-23T05:23:38;6.43;;;1.73;;
79410;SDS011;69635;50.964;6.948;2024-03-23T05:26:03;6.37;;;1.77;;
79410;SDS011;69635;50.964;6.948;2024-03-23T05:28:29;5.45;;;1.45;;
79410;SDS011;69635;50.964;6.948;2024-03-23T05:30:55;7.90;;;1.80;;
79410;SDS011;69635;50.964;6.948;2024-03-23T05:33:20;8.57;;;1.42;;
79410;SDS011;69635;50.964;6.948;2024-03-23T05:35:46;3.40;;;1.45;;
79410;SDS011;69635;50.964;6.948;2024-03-23T05:38:12;4.03;;;0.75;;
79410;SDS011;69635;50.964;6.948;2024-03-23T05:40:38;4.75;;;1.23;;
79410;SDS011;69635;50.964;6.948;2024-03-23T05:43:05;7.45;;;1.73;;
79410;SDS011;69635;50.964;6.948;2024-03-23T05:45:30;4.63;;;1.38;;
79410;SDS011;69635;50.964;6.948;2024-03-23T05:47:56;4.05;;;1.58;;
79410;SDS011;69635;50.964;6.948;2024-03-23T05:50:22;6.45;;;1.63;;
79410;SDS011;69635;50.964;6.948;2024-03-23T05:52:47;6.38;;;1.40;;
79410;SDS011;69635;50.964;6.948;2024-03-23T05:55:12;3.83;;;1.63;;
79410;SDS011;69635;50.964;6.948;2024-03-23T05:57:37;4.90;;;1.33;;
79410;SDS011;69635;50.964;6.948;2024-03-23T06:00:03;10.13;;;2.10;;
79410;SDS011;69635;50.964;6.948;2024-03-23T06:02:29;5.28;;;1.25;;
79410;SDS011;69635;50.964;6.948;2024-03-23T06:04:54;9.07;;;1.77;;
79410;SDS011;69635;50.964;6.948;2024-03-23T06:07:19;10.17;;;1.83;;
79410;SDS011;69635;50.964;6.948;2024-03-23T06:09:44;5.00;;;1.43;;
79410;SDS011;69635;50.964;6.948;2024-03-23T06:12:10;4.95;;;1.80;;
79410;SDS011;69635;50.964;6.948;2024-03-23T06:14:38;10.60;;;1.50;;
79410;SDS011;69635;50.964;6.948;2024-03-23T06:17:03;7.57;;;2.15;;
79410;SDS011;69635;50.964;6.948;2024-03-23T06:19:28;4.40;;;1.43;;
79410;SDS011;69635;50.964;6.948;2024-03-23T06:21:54;7.32;;;1.80;;
79410;SDS011;69635;50.964;6.948;2024-03-23T06:24:21;6.75;;;1.52;;
79410;SDS011;69635;50.964;6.948;2024-03-23T06:26:46;8.15;;;2.05;;
79410;SDS011;69635;50.964;6.948;2024-03-23T06:29:11;8.80;;;1.80;;
79410;SDS011;69635;50.964;6.948;2024-03-23T06:31:36;3.67;;;1.17;;
79410;SDS011;69635;50.964;6.948;2024-03-23T06:34:02;4.97;;;1.30;;
79410;SDS011;69635;50.964;6.948;2024-03-23T06:36:28;3.55;;;1.00;;
79410;SDS011;69635;50.964;6.948;2024-03-23T06:38:55;4.38;;;1.67;;
79410;SDS011;69635;50.964;6.948;2024-03-23T06:41:21;4.90;;;1.25;;
79410;SDS011;69635;50.964;6.948;2024-03-23T06:43:46;7.10;;;1.50;;
79410;SDS011;69635;50.964;6.948;2024-03-23T06:46:11;6.33;;;1.90;;
79410;SDS011;69635;50.964;6.948;2024-03-23T06:48:36;13.17;;;5.47;;
79410;SDS011;69635;50.964;6.948;2024-03-23T06:51:01;5.77;;;1.63;;
79410;SDS011;69635;50.964;6.948;2024-03-23T06:53:27;3.63;;;1.35;;
79410;SDS011;69635;50.964;6.948;2024-03-23T06:55:53;11.03;;;2.80;;
79410;SDS011;69635;50.964;6.948;2024-03-23T06:58:21;6.40;;;1.58;;
79410;SDS011;69635;50.964;6.948;2024-03-23T07:00:47;5.85;;;1.40;;
79410;SDS011;69635;50.964;6.948;2024-03-23T07:03:12;3.70;;;1.43;;
79410;SDS011;69635;50.964;6.948;2024-03-23T07:05:37;7.03;;;1.70;;
79410;SDS011;69635;50.964;6.948;2024-03-23T07:08:04;5.60;;;2.22;;
79410;SDS011;69635;50.964;6.948;2024-03-23T07:10:29;6.57;;;1.83;;
79410;SDS011;69635;50.964;6.948;2024-03-23T07:12:55;6.95;;;1.88;;
79410;SDS011;69635;50.964;6.948;2024-03-23T07:15:21;8.10;;;1.90;;
79410;SDS011;69635;50.964;6.948;2024-03-23T07:17:46;6.90;;;1.67;;
79410;SDS011;69635;50.964;6.948;2024-03-23T07:20:12;4.40;;;1.60;;
79410;SDS011;69635;50.964;6.948;2024-03-23T07:22:38;4.03;;;1.63;;
79410;SDS011;69635;50.964;6.948;2024-03-23T07:25:04;6.40;;;1.50;;
79410;SDS011;69635;50.964;6.948;2024-03-23T07:27:30;4.70;;;1.40;;
79410;SDS011;69635;50.964;6.948;2024-03-23T07:29:55;15.10;;;2.63;;
79410;SDS011;69635;50.964;6.948;2024-03-23T07:32:20;3.15;;;1.63;;
79410;SDS011;69635;50.964;6.948;2024-03-23T07:34:46;5.57;;;1.75;;
79410;SDS011;69635;50.964;6.948;2024-03-23T07:37:11;5.57;;;2.00;;
79410;SDS011;69635;50.964;6.948;2024-03-23T07:39:36;5.88;;;3.05;;
79410;SDS011;69635;50.964;6.948;2024-03-23T07:42:02;8.40;;;3.22;;
79410;SDS011;69635;50.964;6.948;2024-03-23T07:44:27;7.93;;;3.22;;
79410;SDS011;69635;50.964;6.948;2024-03-23T07:46:52;5.83;;;3.10;;
79410;SDS011;69635;50.964;6.948;2024-03-23T07:49:18;7.40;;;2.60;;
79410;SDS011;69635;50.964;6.948;2024-03-23T07:51:43;15.57;;;3.13;;
79410;SDS011;69635;50.964;6.948;2024-03-23T07:54:10;8.88;;;3.78;;
79410;SDS011;69635;50.964;6.948;2024-03-23T07:56:35;7.85;;;3.72;;
79410;SDS011;69635;50.964;6.948;2024-03-23T07:59:01;8.13;;;3.97;;
79410;SDS011;69635;50.964;6.948;2024-03-23T08:01:28;9.82;;;2.72;;
79410;SDS011;69635;50.964;6.948;2024-03-23T08:03:53;9.02;;;2.90;;
79410;SDS011;69635;50.964;6.948;2024-03-23T08:06:20;7.00;;;3.13;;
79410;SDS011;69635;50.964;6.948;2024-03-23T08:08:48;8.02;;;3.03;;
79410;SDS011;69635;50.964;6.948;2024-03-23T08:11:14;6.57;;;2.50;;
79410;SDS011;69635;50.964;6.948;2024-03-23T08:13:40;6.93;;;3.17;;
79410;SDS011;69635;50.964;6.948;2024-03-23T08:16:05;10.30;;;3.25;;
79410;SDS011;69635;50.964;6.948;2024-03-23T08:18:31;7.68;;;3.55;;
79410;SDS011;69635;50.964;6.948;2024-03-23T08:20:57;4.03;;;2.33;;
79410;SDS011;69635;50.964;6.948;2024-03-23T08:23:22;3.22;;;1.65;;
79410;SDS011;69635;50.964;6.948;2024-03-23T08:25:47;6.93;;;3.58;;
79410;SDS011;69635;50.964;6.948;2024-03-23T08:28:13;3.55;;;1.55;;
79410;SDS011;69635;50.964;6.948;2024-03-23T08:30:38;6.40;;;2.27;;
79410;SDS011;69635;50.964;6.948;2024-03-23T08:33:03;4.50;;;2.13;;
79410;SDS011;69635;50.964;6.948;2024-03-23T08:35:29;4.47;;;1.38;;
79410;SDS011;69635;50.964;6.948;2024-03-23T08:37:54;3.72;;;1.48;;
79410;SDS011;69635;50.964;6.948;2024-03-23T08:40:19;5.15;;;1.50;;
79410;SDS011;69635;50.964;6.948;2024-03-23T08:42:45;4.07;;;1.57;;
79410;SDS011;69635;50.964;6.948;2024-03-23T08:45:10;7.50;;;1.87;;
79410;SDS011;69635;50.964;6.948;2024-03-23T08:47:35;6.47;;;2.07;;
79410;SDS011;69635;50.964;6.948;2024-03-23T08:50:01;10.82;;;2.10;;
79410;SDS011;69635;50.964;6.948;2024-03-23T08:52:26;6.30;;;2.10;;
79410;SDS011;69635;50.964;6.948;2024-03-23T08:54:53;6.78;;;2.08;;
79410;SDS011;69635;50.964;6.948;2024-03-23T08:57:19;13.88;;;2.90;;
79410;SDS011;69635;50.964;6.948;2024-03-23T08:59:44;7.63;;;2.30;;
79410;SDS011;69635;50.964;6.948;2024-03-23T09:02:09;8.50;;;2.43;;
79410;SDS011;69635;50.964;6.948;2024-03-23T09:04:34;5.40;;;1.83;;
79410;SDS011;69635;50.964;6.948;2024-03-23T09:07:00;7.32;;;2.38;;
79410;SDS011;69635;50.964;6.948;2024-03-23T09:09:25;5.63;;;2.28;;
79410;SDS011;69635;50.964;6.948;2024-03-23T09:11:51;7.15;;;2.40;;
79410;SDS011;69635;50.964;6.948;2024-03-23T09:14:16;4.43;;;2.57;;
79410;SDS011;69635;50.964;6.948;2024-03-23T09:16:41;7.77;;;2.40;;
79410;SDS011;69635;50.964;6.948;2024-03-23T09:19:06;12.45;;;2.47;;
79410;SDS011;69635;50.964;6.948;2024-03-23T09:21:32;8.05;;;2.45;;
79410;SDS011;69635;50.964;6.948;2024-03-23T09:23:58;12.02;;;2.65;;
79410;SDS011;69635;50.964;6.948;2024-03-23T09:26:23;5.20;;;2.00;;
79410;SDS011;69635;50.964;6.948;2024-03-23T09:28:48;2.47;;;1.57;;
79410;SDS011;69635;50.964;6.948;2024-03-23T09:31:14;6.60;;;2.53;;
79410;SDS011;69635;50.964;6.948;2024-03-23T09:33:40;6.60;;;2.10;;
79410;SDS011;69635;50.964;6.948;2024-03-23T09:36:05;9.43;;;2.03;;
79410;SDS011;69635;50.964;6.948;2024-03-23T09:38:31;5.20;;;1.40;;
79410;SDS011;69635;50.964;6.948;2024-03-23T09:40:56;8.15;;;1.73;;
79410;SDS011;69635;50.964;6.948;2024-03-23T09:43:22;4.03;;;1.58;;
79410;SDS011;69635;50.964;6.948;2024-03-23T09:45:47;3.73;;;1.40;;
79410;SDS011;69635;50.964;6.948;2024-03-23T09:48:13;4.93;;;1.58;;
79410;SDS011;69635;50.964;6.948;2024-03-23T09:50:39;15.50;;;1.83;;
79410;SDS011;69635;50.964;6.948;2024-03-23T09:53:08;3.00;;;1.10;;
79410;SDS011;69635;50.964;6.948;2024-03-23T09:55:34;6.13;;;1.23;;
79410;SDS011;69635;50.964;6.948;2024-03-23T09:58:02;4.97;;;1.08;;
79410;SDS011;69635;50.964;6.948;2024-03-23T10:00:30;1.60;;;1.08;;
79410;SDS011;69635;50.964;6.948;2024-03-23T10:02:55;3.17;;;1.30;;
79410;SDS011;69635;50.964;6.948;2024-03-23T10:05:23;3.97;;;1.30;;
79410;SDS011;69635;50.964;6.948;2024-03-23T10:07:49;3.30;;;1.10;;
79410;SDS011;69635;50.964;6.948;2024-03-23T10:10:15;2.47;;;0.90;;
79410;SDS011;69635;50.964;6.948;2024-03-23T10:12:44;4.07;;;0.95;;
79410;SDS011;69635;50.964;6.948;2024-03-23T10:15:24;4.82;;;1.33;;
79410;SDS011;69635;50.964;6.948;2024-03-23T10:17:49;3.72;;;2.05;;
79410;SDS011;69635;50.964;6.948;2024-03-23T10:20:21;5.22;;;1.17;;
79410;SDS011;69635;50.964;6.948;2024-03-23T10:22:50;2.17;;;0.85;;
79410;SDS011;69635;50.964;6.948;2024-03-23T10:25:16;2.58;;;1.30;;
79410;SDS011;69635;50.964;6.948;2024-03-23T10:27:41;5.47;;;1.17;;
79410;SDS011;69635;50.964;6.948;2024-03-23T10:30:09;3.63;;;1.48;;
79410;SDS011;69635;50.964;6.948;2024-03-23T10:32:34;0.68;;;0.30;;
79410;SDS011;69635;50.964;6.948;2024-03-23T10:37:41;3.60;;;1.58;;
79410;SDS011;69635;50.964;6.948;2024-03-23T10:40:07;2.17;;;0.98;;
79410;SDS011;69635;50.964;6.948;2024-03-23T10:42:34;2.13;;;1.00;;
79410;SDS011;69635;50.964;6.948;2024-03-23T10:44:59;5.70;;;1.25;;
79410;SDS011;69635;50.964;6.948;2024-03-23T10:47:25;3.25;;;1.02;;
79410;SDS011;69635;50.964;6.948;2024-03-23T10:49:50;2.20;;;0.70;;
79410;SDS011;69635;50.964;6.948;2024-03-23T10:52:16;2.13;;;0.73;;
79410;SDS011;69635;50.964;6.948;2024-03-23T10:54:41;1.83;;;0.57;;
79410;SDS011;69635;50.964;6.948;2024-03-23T10:59:58;2.67;;;0.60;;
79410;SDS011;69635;50.964;6.948;2024-03-23T11:02:24;1.38;;;0.80;;
79410;SDS011;69635;50.964;6.948;2024-03-23T11:04:51;1.95;;;0.50;;
79410;SDS011;69635;50.964;6.948;2024-03-23T11:09:51;3.13;;;0.85;;
79410;SDS011;69635;50.964;6.948;2024-03-23T11:14:55;3.20;;;0.80;;
79410;SDS011;69635;50.964;6.948;2024-03-23T11:17:22;1.63;;;0.80;;
79410;SDS011;69635;50.964;6.948;2024-03-23T11:19:54;3.60;;;1.33;;
79410;SDS011;69635;50.964;6.948;2024-03-23T11:24:51;2.13;;;0.38;;
79410;SDS011;69635;50.964;6.948;2024-03-23T11:27:16;1.98;;;0.63;;
79410;SDS011;69635;50.964;6.948;2024-03-23T11:29:41;0.60;;;0.50;;
79410;SDS011;69635;50.964;6.948;2024-03-23T11:32:07;3.77;;;0.60;;
79410;SDS011;69635;50.964;6.948;2024-03-23T11:34:34;1.75;;;0.32;;
79410;SDS011;69635;50.964;6.948;2024-03-23T11:37:04;2.38;;;0.50;;
79410;SDS011;69635;50.964;6.948;2024-03-23T11:39:29;1.95;;;0.50;;
79410;SDS011;69635;50.964;6.948;2024-03-23T11:41:56;4.10;;;1.23;;
79410;SDS011;69635;50.964;6.948;2024-03-23T11:44:22;2.20;;;0.68;;
79410;SDS011;69635;50.964;6.948;2024-03-23T11:46:48;3.25;;;0.68;;
79410;SDS011;69635;50.964;6.948;2024-03-23T11:49:48;2.45;;;0.52;;
79410;SDS011;69635;50.964;6.948;2024-03-23T11:52:07;1.42;;;0.73;;
79410;SDS011;69635;50.964;6.948;2024-03-23T11:54:32;1.33;;;0.63;;
79410;SDS011;69635;50.964;6.948;2024-03-23T11:59:30;3.67;;;1.23;;
79410;SDS011;69635;50.964;6.948;2024-03-23T12:01:56;4.50;;;1.00;;
79410;SDS011;69635;50.964;6.948;2024-03-23T12:04:27;1.67;;;0.90;;
79410;SDS011;69635;50.964;6.948;2024-03-23T12:07:26;0.98;;;0.43;;
79410;SDS011;69635;50.964;6.948;2024-03-23T12:09:44;2.58;;;0.90;;
79410;SDS011;69635;50.964;6.948;2024-03-23T12:12:17;0.90;;;0.60;;
79410;SDS011;69635;50.964;6.948;2024-03-23T12:14:46;3.05;;;0.57;;
79410;SDS011;69635;50.964;6.948;2024-03-23T12:17:25;0.47;;;0.40;;
79410;SDS011;69635;50.964;6.948;2024-03-23T12:19:50;2.03;;;0.40;;
79410;SDS011;69635;50.964;6.948;2024-03-23T12:22:16;1.67;;;1.05;;
79410;SDS011;69635;50.964;6.948;2024-03-23T12:24:45;2.30;;;0.75;;
79410;SDS011;69635;50.964;6.948;2024-03-23T12:27:10;0.82;;;0.52;;
79410;SDS011;69635;50.964;6.948;2024-03-23T12:29:35;1.47;;;0.90;;
79410;SDS011;69635;50.964;6.948;2024-03-23T12:32:01;2.37;;;1.03;;
79410;SDS011;69635;50.964;6.948;2024-03-23T12:34:27;1.10;;;0.50;;
79410;SDS011;69635;50.964;6.948;2024-03-23T12:36:52;2.90;;;0.68;;
79410;SDS011;69635;50.964;6.948;2024-03-23T12:39:17;2.20;;;0.70;;
79410;SDS011;69635;50.964;6.948;2024-03-23T12:41:43;0.43;;;0.40;;
79410;SDS011;69635;50.964;6.948;2024-03-23T12:44:08;0.80;;;0.33;;
79410;SDS011;69635;50.964;6.948;2024-03-23T12:46:36;3.53;;;0.73;;
79410;SDS011;69635;50.964;6.948;2024-03-23T12:49:02;0.93;;;0.65;;
79410;SDS011;69635;50.964;6.948;2024-03-23T12:51:27;0.53;;;0.30;;
79410;SDS011;69635;50.964;6.948;2024-03-23T12:53:52;0.73;;;0.40;;
79410;SDS011;69635;50.964;6.948;2024-03-23T12:56:17;0.60;;;0.30;;
79410;SDS011;69635;50.964;6.948;2024-03-23T12:58:43;0.70;;;0.47;;
79410;SDS011;69635;50.964;6.948;2024-03-23T13:01:08;1.87;;;0.30;;
79410;SDS011;69635;50.964;6.948;2024-03-23T13:03:34;0.77;;;0.20;;
79410;SDS011;69635;50.964;6.948;2024-03-23T13:05:59;0.63;;;0.17;;
79410;SDS011;69635;50.964;6.948;2024-03-23T13:08:24;4.20;;;0.40;;
79410;SDS011;69635;50.964;6.948;2024-03-23T13:10:53;2.80;;;1.37;;
79410;SDS011;69635;50.964;6.948;2024-03-23T13:13:18;13.07;;;1.00;;
79410;SDS011;69635;50.964;6.948;2024-03-23T13:15:49;4.63;;;0.80;;
79410;SDS011;69635;50.964;6.948;2024-03-23T13:18:14;1.67;;;0.75;;
79410;SDS011;69635;50.964;6.948;2024-03-23T13:20:40;3.17;;;0.53;;
79410;SDS011;69635;50.964;6.948;2024-03-23T13:23:05;3.60;;;0.70;;
79410;SDS011;69635;50.964;6.948;2024-03-23T13:25:30;3.37;;;0.70;;
79410;SDS011;69635;50.964;6.948;2024-03-23T13:27:55;2.13;;;0.52;;
79410;SDS011;69635;50.964;6.948;2024-03-23T13:30:21;1.30;;;0.90;;
79410;SDS011;69635;50.964;6.948;2024-03-23T13:32:46;3.60;;;1.00;;
79410;SDS011;69635;50.964;6.948;2024-03-23T13:35:11;3.37;;;1.07;;
79410;SDS011;69635;50.964;6.948;2024-03-23T13:37:36;3.53;;;1.27;;
79410;SDS011;69635;50.964;6.948;2024-03-23T13:40:01;4.43;;;1.13;;
79410;SDS011;69635;50.964;6.948;2024-03-23T13:42:27;1.90;;;0.90;;
79410;SDS011;69635;50.964;6.948;2024-03-23T13:44:52;0.90;;;0.53;;
79410;SDS011;69635;50.964;6.948;2024-03-23T13:47:17;2.17;;;0.90;;
79410;SDS011;69635;50.964;6.948;2024-03-23T13:49:43;1.90;;;0.70;;
79410;SDS011;69635;50.964;6.948;2024-03-23T13:52:09;3.23;;;1.20;;
79410;SDS011;69635;50.964;6.948;2024-03-23T13:54:34;1.15;;;0.80;;
79410;SDS011;69635;50.964;6.948;2024-03-23T13:56:59;3.43;;;1.23;;
79410;SDS011;69635;50.964;6.948;2024-03-23T13:59:24;1.10;;;0.70;;
79410;SDS011;69635;50.964;6.948;2024-03-23T14:01:50;0.60;;;0.60;;
79410;SDS011;69635;50.964;6.948;2024-03-23T14:04:19;1.50;;;0.28;;
79410;SDS011;69635;50.964;6.948;2024-03-23T14:06:47;0.45;;;0.32;;
79410;SDS011;69635;50.964;6.948;2024-03-23T14:09:13;0.53;;;0.30;;
79410;SDS011;69635;50.964;6.948;2024-03-23T14:11:39;1.88;;;0.40;;
79410;SDS011;69635;50.964;6.948;2024-03-23T14:14:06;2.55;;;0.60;;
79410;SDS011;69635;50.964;6.948;2024-03-23T14:16:31;1.08;;;0.43;;
79410;SDS011;69635;50.964;6.948;2024-03-23T14:18:57;4.10;;;0.57;;
79410;SDS011;69635;50.964;6.948;2024-03-23T14:21:22;0.50;;;0.40;;
79410;SDS011;69635;50.964;6.948;2024-03-23T14:23:48;0.70;;;0.60;;
79410;SDS011;69635;50.964;6.948;2024-03-23T14:26:13;1.93;;;0.60;;
79410;SDS011;69635;50.964;6.948;2024-03-23T14:28:38;0.50;;;0.40;;
79410;SDS011;69635;50.964;6.948;2024-03-23T14:31:04;0.80;;;0.60;;
79410;SDS011;69635;50.964;6.948;2024-03-23T14:33:35;1.27;;;0.40;;
79410;SDS011;69635;50.964;6.948;2024-03-23T14:36:00;0.75;;;0.20;;
79410;SDS011;69635;50.964;6.948;2024-03-23T14:38:25;1.67;;;0.60;;
79410;SDS011;69635;50.964;6.948;2024-03-23T14:40:51;2.00;;;0.87;;
79410;SDS011;69635;50.964;6.948;2024-03-23T14:43:19;0.77;;;0.60;;
79410;SDS011;69635;50.964;6.948;2024-03-23T14:48:28;2.13;;;0.75;;
79410;SDS011;69635;50.964;6.948;2024-03-23T14:50:57;6.20;;;1.03;;
79410;SDS011;69635;50.964;6.948;2024-03-23T14:53:22;2.50;;;0.75;;
79410;SDS011;69635;50.964;6.948;2024-03-23T14:55:47;0.80;;;0.50;;
79410;SDS011;69635;50.964;6.948;2024-03-23T14:58:14;1.25;;;0.75;;
79410;SDS011;69635;50.964;6.948;2024-03-23T15:00:39;0.93;;;0.40;;
79410;SDS011;69635;50.964;6.948;2024-03-23T15:03:04;1.23;;;0.53;;
79410;SDS011;69635;50.964;6.948;2024-03-23T15:05:30;1.30;;;0.77;;
79410;SDS011;69635;50.964;6.948;2024-03-23T15:07:55;1.00;;;0.50;;
79410;SDS011;69635;50.964;6.948;2024-03-23T15:10:20;0.53;;;0.30;;
79410;SDS011;69635;50.964;6.948;2024-03-23T15:12:46;1.60;;;0.57;;
79410;SDS011;69635;50.964;6.948;2024-03-23T15:15:11;0.87;;;0.63;;
79410;SDS011;69635;50.964;6.948;2024-03-23T15:17:37;1.88;;;0.43;;
79410;SDS011;69635;50.964;6.948;2024-03-23T15:20:06;0.93;;;0.30;;
79410;SDS011;69635;50.964;6.948;2024-03-23T15:22:31;2.05;;;0.60;;
79410;SDS011;69635;50.964;6.948;2024-03-23T15:24:57;1.77;;;0.70;;
79410;SDS011;69635;50.964;6.948;2024-03-23T15:27:22;3.17;;;0.60;;
79410;SDS011;69635;50.964;6.948;2024-03-23T15:29:47;1.95;;;0.47;;
79410;SDS011;69635;50.964;6.948;2024-03-23T15:32:12;1.50;;;0.60;;
79410;SDS011;69635;50.964;6.948;2024-03-23T15:34:39;2.72;;;0.70;;
79410;SDS011;69635;50.964;6.948;2024-03-23T15:37:04;1.98;;;0.70;;
79410;SDS011;69635;50.964;6.948;2024-03-23T15:39:30;2.28;;;0.80;;
79410;SDS011;69635;50.964;6.948;2024-03-23T15:41:55;1.60;;;0.97;;
79410;SDS011;69635;50.964;6.948;2024-03-23T15:44:20;2.85;;;0.50;;
79410;SDS011;69635;50.964;6.948;2024-03-23T15:46:45;5.70;;;0.82;;
79410;SDS011;69635;50.964;6.948;2024-03-23T15:49:11;0.85;;;0.50;;